Time;durP1;ratioP1;P1;durP2;ratioP2;P2;SDS_P1;SDS_P2;PMS_P1;PMS_P2;Temp;Humidity;BMP_temperature;BMP_pressure;BME280_temperature;BME280_humidity;BME280_pressure;Samples;Min_cycle;Max_cycle;Signal;HPM_P1;HPM_P2
2022/03/21 00:02:11;;;;;;;13.47;9.37;;;;;;;4.36;61.31;99490.88;5056088;28;20266;-69
2022/03/21 00:04:37;;;;;;;12.70;8.70;;;;;;;4.39;61.17;99490.81;5055743;28;20227;-69
2022/03/21 00:07:04;;;;;;;14.87;9.97;;;;;;;4.43;60.69;99498.56;5057104;28;20578;-69
2022/03/21 00:09:31;;;;;;;11.10;8.80;;;;;;;4.41;61.09;99494.25;5045336;28;20251;-69
2022/03/21 00:11:59;;;;;;;14.60;9.17;;;;;;;4.31;61.04;99497.97;5056093;28;20215;-69
2022/03/21 00:14:25;;;;;;;13.30;9.33;;;;;;;4.25;61.75;99503.34;5057012;28;20216;-69
2022/03/21 00:16:51;;;;;;;14.63;9.20;;;;;;;4.22;61.63;99499.03;5057531;28;20227;-69
2022/03/21 00:19:18;;;;;;;12.90;9.90;;;;;;;4.19;61.95;99493.88;5055609;28;20223;-69
2022/03/21 00:21:44;;;;;;;13.67;9.53;;;;;;;4.13;61.89;99499.25;5055981;28;20215;-69
2022/03/21 00:24:11;;;;;;;12.17;9.00;;;;;;;4.04;62.24;99493.38;5056656;28;20220;-69
2022/03/21 00:26:37;;;;;;;12.83;9.07;;;;;;;3.93;63.45;99501.44;5057593;28;20215;-69
2022/03/21 00:29:06;;;;;;;13.40;8.20;;;;;;;3.86;64.05;99499.81;5054019;28;20222;-70
2022/03/21 00:31:32;;;;;;;13.37;9.33;;;;;;;3.85;63.34;99495.50;5055620;28;20254;-70
2022/03/21 00:33:59;;;;;;;12.43;8.80;;;;;;;3.76;64.05;99495.69;5056347;28;20245;-70
2022/03/21 00:36:25;;;;;;;13.47;9.07;;;;;;;3.73;64.06;99494.91;5057995;28;20218;-70
2022/03/21 00:38:52;;;;;;;12.80;9.00;;;;;;;3.71;63.10;99494.94;5055817;28;20219;-70
2022/03/21 00:41:18;;;;;;;13.33;9.10;;;;;;;3.71;63.05;99494.94;5055472;28;20212;-71
2022/03/21 00:43:45;;;;;;;13.13;8.83;;;;;;;3.62;63.88;99505.56;5055317;28;20677;-70
2022/03/21 00:46:13;;;;;;;12.53;8.70;;;;;;;3.50;65.12;99505.81;5055274;28;20227;-70
2022/03/21 00:48:39;;;;;;;13.10;8.53;;;;;;;3.44;65.62;99505.94;5055378;28;20208;-70
2022/03/21 00:51:06;;;;;;;11.57;8.70;;;;;;;3.48;66.12;99507.59;5055573;28;20216;-71
2022/03/21 00:53:32;;;;;;;10.80;8.37;;;;;;;3.53;66.01;99504.88;5056281;28;20242;-69
2022/03/21 00:55:59;;;;;;;11.80;7.90;;;;;;;3.61;65.71;99509.06;5060823;28;20229;-69
2022/03/21 00:58:25;;;;;;;12.37;8.60;;;;;;;3.72;65.09;99504.50;5059154;28;20681;-69
2022/03/21 01:00:52;;;;;;;11.40;8.13;;;;;;;3.76;64.40;99493.09;5059209;28;20247;-69
2022/03/21 01:03:20;;;;;;;12.30;8.90;;;;;;;3.79;64.24;99490.41;5059242;28;20212;-69
2022/03/21 01:05:46;;;;;;;12.13;8.73;;;;;;;3.84;64.55;99496.41;5062199;28;20217;-69
2022/03/21 01:08:13;;;;;;;11.93;8.33;;;;;;;3.91;63.72;99497.97;5059575;28;20218;-69
2022/03/21 01:10:39;;;;;;;11.03;8.30;;;;;;;3.97;63.20;99497.84;5059351;28;20230;-69
2022/03/21 01:13:06;;;;;;;10.93;8.47;;;;;;;3.96;63.89;99496.13;5059144;28;20719;-69
2022/03/21 01:15:32;;;;;;;11.93;8.60;;;;;;;3.96;63.88;99503.97;5061343;28;20760;-69
2022/03/21 01:17:59;;;;;;;11.37;8.43;;;;;;;3.93;63.96;99496.22;5059400;28;20624;-69
2022/03/21 01:20:27;;;;;;;11.20;8.40;;;;;;;3.90;63.80;99505.84;5059214;28;20290;-70
2022/03/21 01:22:54;;;;;;;12.13;8.77;;;;;;;3.90;63.12;99506.72;5057413;28;20225;-70
2022/03/21 01:25:21;;;;;;;11.43;8.20;;;;;;;3.85;62.90;99500.72;5061048;28;20306;-70
2022/03/21 01:27:47;;;;;;;10.30;8.33;;;;;;;3.84;63.24;99501.63;5059301;28;20215;-70
2022/03/21 01:30:16;;;;;;;13.60;9.70;;;;;;;3.91;62.72;99508.44;5058714;28;20215;-69
2022/03/21 01:32:43;;;;;;;11.33;8.07;;;;;;;3.91;62.79;99505.81;5058900;28;20238;-70
2022/03/21 01:35:11;;;;;;;13.37;8.80;;;;;;;3.84;63.13;99512.09;5060673;28;20318;-71
2022/03/21 01:37:40;;;;;;;11.97;8.70;;;;;;;3.78;62.78;99517.44;5058973;28;20220;-70
2022/03/21 01:40:08;;;;;;;14.30;8.53;;;;;;;3.78;62.50;99514.81;5058706;28;20226;-71
2022/03/21 01:42:36;;;;;;;12.43;8.47;;;;;;;3.83;62.38;99515.59;5058451;28;20216;-69
2022/03/21 01:45:05;;;;;;;11.67;8.90;;;;;;;3.69;63.57;99515.03;5061187;28;20222;-71
2022/03/21 01:47:33;;;;;;;13.17;8.77;;;;;;;3.61;64.65;99519.53;5055288;28;20445;-69
2022/03/21 01:49:59;;;;;;;11.87;8.70;;;;;;;3.62;64.73;99518.63;5058813;28;20223;-70
2022/03/21 01:52:26;;;;;;;12.20;9.07;;;;;;;3.64;64.71;99524.72;5058572;28;20226;-70
2022/03/21 01:57:38;;;;;;;11.97;7.63;;;;;;;3.69;64.49;99517.63;5058688;28;20257;-70
2022/03/21 02:00:07;;;;;;;12.70;8.67;;;;;;;3.70;64.13;99524.59;5059600;28;20582;-70
2022/03/21 02:02:33;;;;;;;11.83;8.63;;;;;;;3.81;63.00;99521.75;5060819;28;20614;-70
2022/03/21 02:05:01;;;;;;;12.57;8.60;;;;;;;3.88;63.30;99516.38;5059168;28;20309;-70
2022/03/21 02:07:27;;;;;;;11.47;8.03;;;;;;;3.90;64.78;99521.53;5058325;28;20219;-70
2022/03/21 02:09:55;;;;;;;12.37;8.13;;;;;;;3.94;63.48;99518.84;5058324;28;20211;-70
2022/03/21 02:12:22;;;;;;;13.80;8.20;;;;;;;3.98;63.38;99533.56;5058620;28;20708;-69
2022/03/21 02:14:49;;;;;;;12.97;9.13;;;;;;;4.18;61.51;99526.19;5058360;28;20242;-69
2022/03/21 02:17:19;;;;;;;9.80;8.03;;;;;;;4.24;61.96;99523.44;5057713;28;20218;-69
2022/03/21 02:19:48;;;;;;;11.60;8.37;;;;;;;4.26;62.34;99518.13;5057672;28;20204;-69
2022/03/21 02:22:27;;;;;;;11.87;8.53;;;;;;;4.31;61.56;99519.78;5059035;28;20216;-70
2022/03/21 02:25:03;;;;;;;11.43;8.27;;;;;;;4.37;62.55;99514.41;5055265;28;20261;-69
2022/03/21 02:27:33;;;;;;;10.30;7.80;;;;;;;4.41;63.29;99516.03;5057583;28;20275;-69
2022/03/21 02:30:01;;;;;;;11.83;8.67;;;;;;;4.47;62.14;99520.28;5057704;28;20216;-69
2022/03/21 02:32:28;;;;;;;11.00;7.97;;;;;;;4.42;62.65;99516.91;5057799;28;20303;-69
2022/03/21 02:34:56;;;;;;;11.10;7.90;;;;;;;4.36;63.56;99523.16;5057756;28;20290;-69
2022/03/21 02:37:26;;;;;;;10.27;8.17;;;;;;;4.35;62.66;99521.41;5057713;28;20223;-69
2022/03/21 02:39:53;;;;;;;12.57;8.90;;;;;;;4.34;62.54;99531.94;5056528;28;20262;-70
2022/03/21 02:42:20;;;;;;;10.30;7.97;;;;;;;4.26;62.58;99526.88;5059263;28;20221;-70
2022/03/21 02:44:48;;;;;;;12.03;8.30;;;;;;;4.07;63.53;99530.78;5057573;28;20223;-70
2022/03/21 02:47:14;;;;;;;13.23;8.23;;;;;;;3.89;65.04;99525.94;5057141;28;20229;-69
2022/03/21 02:49:41;;;;;;;10.97;8.20;;;;;;;3.78;66.11;99529.66;5057299;28;20214;-70
2022/03/21 02:52:10;;;;;;;12.03;8.40;;;;;;;3.72;65.59;99533.25;5059372;28;20228;-69
2022/03/21 02:54:37;;;;;;;15.13;8.57;;;;;;;3.57;66.45;99532.69;5057147;28;20244;-70
2022/03/21 02:57:03;;;;;;;12.80;8.53;;;;;;;3.45;67.54;99533.81;5057179;28;20219;-71
2022/03/21 02:59:30;;;;;;;11.87;8.17;;;;;;;3.36;68.69;99528.72;5057477;28;20226;-69
2022/03/21 03:01:58;;;;;;;12.30;8.13;;;;;;;3.33;68.77;99523.56;5059456;28;20240;-69
2022/03/21 03:04:26;;;;;;;11.67;8.33;;;;;;;3.27;68.39;99530.66;5057293;28;20237;-69
2022/03/21 03:06:52;;;;;;;12.33;8.63;;;;;;;3.26;68.76;99535.03;5055547;28;20229;-69
2022/03/21 03:09:19;;;;;;;12.13;8.50;;;;;;;3.26;69.53;99527.19;5056838;28;20679;-69
2022/03/21 03:11:45;;;;;;;12.50;9.00;;;;;;;3.27;69.63;99538.47;5059630;28;20218;-70
2022/03/21 03:14:12;;;;;;;10.70;8.13;;;;;;;3.18;70.01;99542.13;5056699;28;20254;-68
2022/03/21 03:16:39;;;;;;;11.63;8.80;;;;;;;3.12;70.26;99539.63;5056864;28;20211;-70
2022/03/21 03:19:07;;;;;;;11.83;8.83;;;;;;;3.01;71.04;99545.91;5056718;28;20222;-70
2022/03/21 03:21:36;;;;;;;13.80;9.27;;;;;;;2.94;71.14;99549.53;5059698;28;20228;-70
2022/03/21 03:24:03;;;;;;;13.53;9.07;;;;;;;2.81;71.43;99543.63;5056606;28;20693;-70
2022/03/21 03:26:30;;;;;;;12.47;9.17;;;;;;;2.75;72.12;99548.09;5056764;28;20589;-70
2022/03/21 03:28:56;;;;;;;15.53;9.43;;;;;;;2.65;73.01;99547.38;5056649;28;20217;-69
2022/03/21 03:31:23;;;;;;;11.57;8.97;;;;;;;2.61;72.75;99540.47;5058070;28;20226;-69
2022/03/21 03:33:49;;;;;;;12.77;9.03;;;;;;;2.51;73.89;99546.72;5056000;28;20238;-70
2022/03/21 03:36:18;;;;;;;12.47;9.63;;;;;;;2.48;74.61;99543.28;5056278;28;20216;-69
2022/03/21 03:38:45;;;;;;;13.17;8.90;;;;;;;2.46;74.53;99545.91;5056230;28;20215;-69
2022/03/21 03:41:12;;;;;;;14.53;9.23;;;;;;;2.43;74.92;99542.50;5059327;28;20218;-69
2022/03/21 03:43:39;;;;;;;14.70;10.20;;;;;;;2.39;76.51;99543.44;5056144;28;20214;-70
2022/03/21 03:46:06;;;;;;;12.83;9.47;;;;;;;2.33;77.22;99546.97;5056299;28;20217;-69
2022/03/21 03:48:33;;;;;;;12.20;8.73;;;;;;;2.27;76.25;99544.44;5056044;28;20216;-69
2022/03/21 03:51:00;;;;;;;16.57;9.47;;;;;;;2.14;77.28;99553.34;5058985;28;20214;-69
2022/03/21 03:53:28;;;;;;;13.90;9.53;;;;;;;2.16;77.63;99554.19;5056168;28;20280;-69
2022/03/21 03:55:54;;;;;;;14.87;10.17;;;;;;;2.06;78.84;99552.59;5055722;28;20669;-69
2022/03/21 03:58:21;;;;;;;14.57;10.17;;;;;;;2.00;80.78;99560.47;5054204;28;20697;-69
2022/03/21 04:00:47;;;;;;;15.00;10.20;;;;;;;1.98;80.60;99557.03;5058808;28;20245;-69
2022/03/21 04:05:58;;;;;;;13.43;9.37;;;;;;;1.91;79.55;99565.78;5055946;28;20742;-69
2022/03/21 04:08:25;;;;;;;13.87;9.43;;;;;;;1.86;80.25;99557.19;5056785;28;20222;-69
2022/03/21 04:10:53;;;;;;;14.20;9.63;;;;;;;1.82;80.42;99554.63;5054677;28;20228;-69
2022/03/21 04:13:19;;;;;;;17.43;9.07;;;;;;;1.77;79.40;99562.50;5055958;28;20581;-69
2022/03/21 04:15:46;;;;;;;13.57;9.70;;;;;;;1.65;80.17;99560.03;5056017;28;20215;-69
2022/03/21 04:18:12;;;;;;;15.17;9.80;;;;;;;1.53;79.49;99556.72;5056396;28;20667;-69
2022/03/21 04:20:40;;;;;;;12.57;9.17;;;;;;;1.41;80.68;99562.06;5058404;28;20561;-69
2022/03/21 04:23:09;;;;;;;13.80;9.33;;;;;;;1.49;82.17;99570.66;5055909;28;20213;-70
2022/03/21 04:25:36;;;;;;;14.27;8.97;;;;;;;1.44;82.89;99573.31;5054166;28;20300;-70
2022/03/21 04:28:09;;;;;;;15.90;10.23;;;;;;;1.35;84.63;99565.56;5055485;28;20696;-70
2022/03/21 04:30:36;;;;;;;13.23;9.47;;;;;;;1.35;85.02;99576.00;5056912;28;20295;-70
2022/03/21 04:33:02;;;;;;;15.03;9.77;;;;;;;1.35;85.43;99576.00;5044898;28;20690;-69
2022/03/21 04:35:29;;;;;;;13.97;9.37;;;;;;;1.33;85.68;99569.94;5055820;28;20233;-70
2022/03/21 04:37:55;;;;;;;12.67;9.07;;;;;;;1.32;85.54;99581.25;5056516;28;20689;-70
2022/03/21 04:40:23;;;;;;;12.53;9.37;;;;;;;1.35;85.73;99578.59;5057337;28;20212;-70
2022/03/21 04:42:50;;;;;;;12.97;9.07;;;;;;;1.42;84.98;99582.88;5056029;28;20214;-70
2022/03/21 04:45:18;;;;;;;13.53;8.93;;;;;;;1.44;85.97;99588.94;5055429;28;20217;-69
2022/03/21 04:47:45;;;;;;;11.37;9.33;;;;;;;1.49;85.91;99587.16;5056569;28;20622;-69
2022/03/21 04:50:12;;;;;;;14.63;9.73;;;;;;;1.43;85.42;99584.63;5055498;28;20220;-69
2022/03/21 04:52:38;;;;;;;12.70;9.27;;;;;;;1.42;85.65;99585.47;5055729;28;20228;-69
2022/03/21 04:55:07;;;;;;;13.83;9.10;;;;;;;1.44;85.71;99588.06;5055204;28;20243;-69
2022/03/21 04:57:34;;;;;;;13.23;8.67;;;;;;;1.38;85.96;99591.59;5056355;28;20209;-69
2022/03/21 05:00:01;;;;;;;12.10;8.47;;;;;;;1.40;85.22;99583.75;5057322;28;20222;-69
2022/03/21 05:02:29;;;;;;;13.47;9.20;;;;;;;1.42;85.18;99588.06;5055752;28;20580;-69
2022/03/21 05:04:55;;;;;;;14.60;9.03;;;;;;;1.52;84.18;99600.13;5055237;28;20671;-69
2022/03/21 05:07:21;;;;;;;13.30;8.83;;;;;;;1.66;82.07;99598.25;5055791;28;20263;-69
2022/03/21 05:09:48;;;;;;;12.67;8.80;;;;;;;1.67;81.83;99602.56;5057465;28;20224;-69
2022/03/21 05:12:15;;;;;;;13.53;9.77;;;;;;;1.58;82.28;99600.06;5055537;28;20213;-69
2022/03/21 05:14:42;;;;;;;12.63;9.03;;;;;;;1.53;81.74;99598.41;5055406;28;20239;-69
2022/03/21 05:17:10;;;;;;;14.33;9.43;;;;;;;1.54;82.08;99597.53;5053567;28;20217;-69
2022/03/21 05:19:39;;;;;;;14.10;9.27;;;;;;;1.61;82.13;99602.63;5057620;28;20204;-69
2022/03/21 05:22:06;;;;;;;13.43;9.47;;;;;;;1.73;80.45;99596.44;5055221;28;20226;-69
2022/03/21 05:35:52;;;;;;;12.37;10.40;;;;;;;1.62;80.80;99612.19;5054991;28;20622;-71
2022/03/21 05:38:23;;;;;;;16.57;10.50;;;;;;;1.65;79.57;99608.69;5053529;28;20217;-69
2022/03/21 05:40:50;;;;;;;14.70;10.13;;;;;;;1.68;79.59;99609.53;5057133;28;20701;-69
2022/03/21 05:43:17;;;;;;;16.63;10.37;;;;;;;1.72;78.83;99616.41;5058921;28;20224;-69
2022/03/21 05:45:43;;;;;;;15.40;11.20;;;;;;;1.69;79.08;99621.69;5058869;28;20217;-69
2022/03/21 05:50:55;;;;;;;15.73;10.23;;;;;;;1.60;79.27;99626.97;5061110;28;20271;-69
2022/03/21 05:53:22;;;;;;;14.83;10.30;;;;;;;1.57;80.14;99631.34;5056213;28;20214;-71
2022/03/21 05:55:48;;;;;;;15.60;9.77;;;;;;;1.63;80.25;99632.16;5055578;28;20237;-70
2022/03/21 05:58:14;;;;;;;16.50;10.60;;;;;;;1.68;80.05;99630.38;5058602;28;20217;-69
2022/03/21 06:00:42;;;;;;;16.77;10.40;;;;;;;1.69;79.76;99634.72;5060729;28;20584;-70
2022/03/21 06:03:10;;;;;;;14.80;9.57;;;;;;;1.75;80.90;99642.47;5058891;28;20245;-69
2022/03/21 06:05:37;;;;;;;13.63;9.80;;;;;;;1.88;79.86;99646.66;5057989;28;20679;-69
2022/03/21 06:08:05;;;;;;;16.17;10.50;;;;;;;1.99;80.41;99651.75;5056631;28;20225;-70
2022/03/21 06:10:32;;;;;;;14.03;10.13;;;;;;;2.07;80.45;99648.19;5060643;28;20221;-68
2022/03/21 06:13:05;;;;;;;13.40;10.03;;;;;;;2.19;80.05;99655.88;5057983;28;20215;-69
2022/03/21 06:15:32;;;;;;;14.80;10.20;;;;;;;2.29;80.11;99644.44;5058006;28;20233;-69
2022/03/21 06:17:59;;;;;;;16.70;10.37;;;;;;;2.38;80.13;99653.91;5057711;28;20691;-68
2022/03/21 06:20:26;;;;;;;13.50;9.80;;;;;;;2.42;80.24;99643.41;5060642;28;20208;-69
2022/03/21 06:22:53;;;;;;;14.03;9.90;;;;;;;2.52;80.40;99647.59;5057771;28;20696;-68
2022/03/21 06:25:21;;;;;;;15.93;10.53;;;;;;;2.68;79.63;99654.34;5057785;28;20223;-69
2022/03/21 06:27:48;;;;;;;17.87;10.80;;;;;;;2.80;80.00;99661.13;5058039;28;20219;-69
2022/03/21 06:30:15;;;;;;;13.83;9.87;;;;;;;2.93;79.43;99658.34;5060615;28;20253;-68
2022/03/21 06:32:42;;;;;;;12.40;9.00;;;;;;;3.07;79.56;99664.19;5055186;28;20583;-69
2022/03/21 06:35:10;;;;;;;15.50;10.30;;;;;;;3.24;78.99;99664.81;5058857;28;20242;-70
2022/03/21 06:37:37;;;;;;;17.50;10.20;;;;;;;3.37;77.98;99662.88;5057422;28;20269;-70
2022/03/21 06:40:04;;;;;;;13.23;9.40;;;;;;;3.59;75.93;99652.03;5060310;28;20597;-69
2022/03/21 06:42:32;;;;;;;16.13;11.20;;;;;;;3.82;76.26;99655.09;5057262;28;20210;-70
2022/03/21 06:45:01;;;;;;;16.17;10.20;;;;;;;3.96;76.12;99660.06;5057328;28;20214;-70
2022/03/21 06:47:28;;;;;;;15.00;10.30;;;;;;;4.02;76.05;99657.31;5057536;28;20222;-70
2022/03/21 06:49:54;;;;;;;16.17;10.20;;;;;;;4.19;72.98;99657.84;5060206;28;20219;-70
2022/03/21 06:52:21;;;;;;;16.87;10.63;;;;;;;4.40;71.09;99645.19;5059248;28;20219;-69
2022/03/21 06:54:49;;;;;;;14.90;10.60;;;;;;;4.52;71.27;99660.66;5056962;28;20236;-71
2022/03/21 06:57:16;;;;;;;16.47;10.70;;;;;;;4.75;70.33;99658.41;5057262;28;20214;-69
2022/03/21 06:59:45;;;;;;;14.90;10.50;;;;;;;4.89;69.73;99661.59;5058425;28;20220;-69
2022/03/21 07:02:12;;;;;;;15.40;10.10;;;;;;;5.08;67.35;99665.50;5054454;28;20697;-69
2022/03/21 07:04:38;;;;;;;13.03;9.77;;;;;;;5.16;68.75;99660.09;5057081;28;20223;-70
2022/03/21 07:07:05;;;;;;;14.30;9.93;;;;;;;5.32;67.83;99666.69;5056900;28;20219;-72
2022/03/21 07:09:32;;;;;;;15.83;9.87;;;;;;;5.47;67.41;99669.81;5059451;28;20215;-71
2022/03/21 07:11:58;;;;;;;13.97;9.40;;;;;;;5.59;66.89;99666.88;5057204;28;20579;-69
2022/03/21 07:14:25;;;;;;;15.73;9.90;;;;;;;5.76;66.32;99671.69;5056933;28;20244;-68
2022/03/21 07:16:53;;;;;;;14.97;10.20;;;;;;;5.90;65.37;99673.09;5057079;28;20219;-69
2022/03/21 07:19:19;;;;;;;12.83;9.43;;;;;;;5.98;63.34;99675.53;5058631;28;20223;-69
2022/03/21 07:21:46;;;;;;;15.40;9.70;;;;;;;6.06;65.17;99674.44;5057427;28;20216;-69
2022/03/21 07:24:13;;;;;;;11.90;9.33;;;;;;;6.15;63.48;99676.78;5056651;28;20220;-69
2022/03/21 07:26:40;;;;;;;13.20;9.50;;;;;;;6.24;63.09;99679.16;5055166;28;20228;-69
2022/03/21 07:29:11;;;;;;;14.23;10.37;;;;;;;6.38;62.39;99682.28;5058345;28;20226;-70
2022/03/21 07:31:37;;;;;;;13.70;9.93;;;;;;;6.43;61.75;99680.38;5056144;28;20254;-70
2022/03/21 07:34:06;;;;;;;12.30;8.60;;;;;;;6.54;61.53;99691.44;5050950;28;20599;-69
2022/03/21 07:36:33;;;;;;;13.50;9.50;;;;;;;6.66;60.47;99683.19;5051135;28;20293;-68
2022/03/21 07:39:00;;;;;;;11.87;9.60;;;;;;;6.70;59.48;99689.22;5058374;28;20677;-69
2022/03/21 07:41:27;;;;;;;15.43;8.90;;;;;;;6.76;60.16;99694.28;5056971;28;20213;-69
2022/03/21 07:43:56;;;;;;;13.67;8.70;;;;;;;6.82;61.29;99687.09;5056533;28;20267;-69
2022/03/21 07:49:10;;;;;;;11.97;9.43;;;;;;;6.98;59.12;99690.13;5054043;28;20633;-69
2022/03/21 07:51:36;;;;;;;10.80;8.97;;;;;;;7.10;58.24;99701.16;5056309;28;20577;-69
2022/03/21 07:54:03;;;;;;;13.27;9.47;;;;;;;7.21;57.58;99693.78;5054218;28;20209;-69
2022/03/21 07:56:30;;;;;;;12.87;9.77;;;;;;;7.28;57.12;99695.31;5056457;28;20240;-69
2022/03/21 07:58:59;;;;;;;12.33;8.90;;;;;;;7.46;56.35;99692.09;5057955;28;20222;-70
2022/03/21 08:01:29;;;;;;;11.17;8.83;;;;;;;7.62;56.41;99695.94;5055813;28;20237;-69
2022/03/21 08:03:56;;;;;;;15.97;9.47;;;;;;;7.78;54.30;99707.69;5054944;28;20248;-69
2022/03/21 08:06:24;;;;;;;13.80;9.30;;;;;;;7.84;54.49;99697.81;5056399;28;20212;-70
2022/03/21 08:08:50;;;;;;;12.97;9.53;;;;;;;8.01;54.15;99700.75;5057593;28;20218;-69
2022/03/21 08:11:17;;;;;;;13.27;9.30;;;;;;;8.11;54.22;99701.28;5055654;28;20214;-68
2022/03/21 08:13:44;;;;;;;11.97;8.73;;;;;;;8.17;54.68;99701.06;5052552;28;20217;-70
2022/03/21 08:16:10;;;;;;;13.93;9.60;;;;;;;8.35;52.40;99700.47;5055157;28;20248;-70
2022/03/21 08:18:37;;;;;;;12.63;9.03;;;;;;;8.36;52.61;99699.53;5055375;28;20314;-71
2022/03/21 08:21:03;;;;;;;11.97;9.57;;;;;;;8.42;53.46;99707.22;5055570;28;20229;-71
2022/03/21 08:23:32;;;;;;;12.80;9.83;;;;;;;8.55;52.03;99695.31;5055856;28;20234;-71
2022/03/21 08:25:59;;;;;;;12.40;9.47;;;;;;;8.63;51.83;99695.94;5056445;28;20218;-71
2022/03/21 08:28:26;;;;;;;12.57;9.00;;;;;;;8.65;52.71;99694.09;5057611;28;20222;-71
2022/03/21 08:30:52;;;;;;;12.25;9.52;;;;;;;8.72;52.54;99687.66;5049360;28;20444;-67
2022/03/21 08:33:19;;;;;;;13.50;9.43;;;;;;;8.85;51.57;99689.78;5051509;28;20210;-70
2022/03/21 08:35:45;;;;;;;13.30;9.63;;;;;;;8.84;49.82;99689.84;5054998;28;20244;-69
2022/03/21 08:38:12;;;;;;;12.80;9.50;;;;;;;8.97;50.59;99691.97;5050340;28;20213;-69
2022/03/21 08:40:40;;;;;;;13.20;9.00;;;;;;;9.30;50.23;99690.66;5052146;28;20669;-71
2022/03/21 08:43:07;;;;;;;13.37;9.67;;;;;;;9.37;49.58;99683.38;5054072;28;20579;-69
2022/03/21 08:45:34;;;;;;;12.60;9.73;;;;;;;9.57;48.87;99688.69;5047765;28;20595;-69
2022/03/21 08:48:00;;;;;;;13.20;9.63;;;;;;;9.70;48.48;99689.91;5052372;28;20218;-67
2022/03/21 08:50:27;;;;;;;12.30;9.70;;;;;;;9.82;48.56;99687.63;5056433;28;20219;-72
2022/03/21 08:52:56;;;;;;;15.20;9.97;;;;;;;9.98;49.00;99690.50;5052807;28;20216;-68
2022/03/21 08:55:23;;;;;;;12.57;9.17;;;;;;;10.00;48.41;99688.63;5054812;28;20258;-70
2022/03/21 08:57:51;;;;;;;13.40;10.47;;;;;;;10.14;47.13;99679.22;5057563;28;20221;-70
2022/03/21 09:00:19;;;;;;;13.93;9.20;;;;;;;10.19;47.40;99676.38;5053519;28;20266;-71
2022/03/21 09:02:48;;;;;;;12.63;10.03;;;;;;;10.23;48.22;99680.63;5046181;28;20391;-67
2022/03/21 09:05:16;;;;;;;15.43;10.40;;;;;;;10.39;48.74;99679.88;5055843;28;20218;-73
2022/03/21 09:07:42;;;;;;;12.13;9.77;;;;;;;10.50;47.78;99679.38;5049668;28;20215;-73
2022/03/21 09:10:11;;;;;;;13.17;10.13;;;;;;;10.55;46.37;99673.00;5059180;28;20304;-71
2022/03/21 09:12:37;;;;;;;13.20;10.03;;;;;;;10.66;46.90;99685.72;5059334;28;20213;-71
2022/03/21 09:15:06;;;;;;;14.37;10.10;;;;;;;10.83;46.15;99680.53;5062212;28;20236;-72
2022/03/21 09:17:33;;;;;;;15.43;10.50;;;;;;;11.04;45.95;99677.75;5065110;28;20209;-72
2022/03/21 09:19:59;;;;;;;13.33;9.63;;;;;;;11.14;45.16;99678.19;5073012;28;20294;-71
2022/03/21 09:22:26;;;;;;;12.80;9.87;;;;;;;11.09;45.58;99674.88;5056267;28;20235;-72
2022/03/21 09:24:52;;;;;;;13.13;9.93;;;;;;;11.13;44.88;99674.66;5053039;28;20215;-73
2022/03/21 09:27:20;;;;;;;12.60;9.73;;;;;;;11.22;45.07;99678.66;5056527;28;20322;-73
2022/03/21 09:29:47;;;;;;;13.30;10.50;;;;;;;11.29;44.45;99673.03;5061829;28;20208;-73
2022/03/21 09:32:16;;;;;;;13.10;10.50;;;;;;;11.31;45.01;99676.44;5060966;28;20576;-72
2022/03/21 09:34:43;;;;;;;13.90;10.63;;;;;;;11.47;44.99;99679.22;5049139;28;20665;-73
2022/03/21 09:37:09;;;;;;;14.30;10.47;;;;;;;11.62;44.87;99676.69;5052231;28;20239;-72
2022/03/21 09:39:36;;;;;;;13.97;10.33;;;;;;;11.74;44.43;99672.59;5053971;28;20212;-72
2022/03/21 09:42:03;;;;;;;11.83;10.10;;;;;;;11.92;43.60;99675.19;5054905;28;20580;-73
2022/03/21 09:44:30;;;;;;;15.20;10.50;;;;;;;12.09;43.59;99663.72;5060401;28;20216;-73
2022/03/21 09:48:08;;;;;;;14.93;10.97;;;;;;;12.15;42.58;99676.66;5061003;28;20215;-73
2022/03/21 09:49:48;;;;;;;14.57;10.27;;;;;;;12.30;42.50;99665.28;5060059;28;20212;-73
2022/03/21 09:52:16;;;;;;;13.67;10.80;;;;;;;12.42;43.19;99662.00;5050911;28;20219;-72
2022/03/21 09:54:43;;;;;;;14.37;10.47;;;;;;;12.48;42.18;99664.31;5059673;28;20222;-72
2022/03/21 09:57:09;;;;;;;14.40;10.17;;;;;;;12.44;42.07;99646.84;5062546;28;20235;-72
2022/03/21 09:59:36;;;;;;;18.03;11.80;;;;;;;12.70;42.14;99654.28;5056758;28;20225;-71
2022/03/21 10:02:03;;;;;;;12.57;10.63;;;;;;;12.78;42.05;99657.38;5060313;28;20233;-71
2022/03/21 10:04:30;;;;;;;16.10;11.60;;;;;;;12.93;41.97;99652.09;5053526;28;20300;-71
2022/03/21 10:07:01;;;;;;;12.67;10.30;;;;;;;12.87;41.24;99651.56;5059083;28;20694;-70
2022/03/21 10:09:27;;;;;;;13.97;10.53;;;;;;;12.97;42.14;99652.81;5060530;28;20209;-68
2022/03/21 10:11:56;;;;;;;14.17;10.40;;;;;;;13.01;41.50;99649.06;5063876;28;20285;-69
2022/03/21 10:14:26;;;;;;;13.57;10.67;;;;;;;12.97;41.34;99642.22;5061794;28;20219;-71
2022/03/21 10:16:54;;;;;;;15.57;11.83;;;;;;;13.01;41.67;99647.25;5065186;28;20239;-72
2022/03/21 10:19:20;;;;;;;14.93;10.83;;;;;;;13.25;41.89;99651.22;5057702;28;20681;-74
2022/03/21 10:22:06;;;;;;;14.40;11.03;;;;;;;13.31;40.56;99642.91;5058879;28;20219;-75
2022/03/21 10:24:37;;;;;;;15.73;11.47;;;;;;;13.32;40.59;99647.25;5053189;28;20576;-73
2022/03/21 10:27:05;;;;;;;15.23;11.47;;;;;;;13.39;40.79;99650.44;5058040;28;20223;-73
2022/03/21 10:29:32;;;;;;;15.70;11.60;;;;;;;13.27;39.42;99645.81;5054528;28;20683;-74
2022/03/21 10:31:59;;;;;;;16.30;11.70;;;;;;;13.29;40.04;99643.91;5057269;28;20568;-74
2022/03/21 10:34:30;;;;;;;16.83;12.10;;;;;;;13.36;40.66;99650.59;5054710;28;20666;-73
2022/03/21 10:37:03;;;;;;;15.90;12.27;;;;;;;13.47;41.29;99648.19;5057135;28;20718;-73
2022/03/21 10:39:31;;;;;;;17.33;11.87;;;;;;;13.51;40.16;99644.44;5056134;28;20600;-73
2022/03/21 10:42:00;;;;;;;15.30;11.70;;;;;;;13.52;39.51;99641.66;5056317;28;20216;-74
2022/03/21 10:44:28;;;;;;;17.87;12.60;;;;;;;13.70;39.50;99645.09;5059654;28;20592;-74
2022/03/21 10:46:55;;;;;;;16.80;12.47;;;;;;;13.72;39.24;99645.84;5059677;28;20666;-73
2022/03/21 10:49:31;;;;;;;16.60;12.97;;;;;;;13.84;38.49;99640.69;5054430;28;20217;-74
2022/03/21 10:51:58;;;;;;;16.20;11.87;;;;;;;13.96;38.86;99647.06;5051195;28;20587;-75
2022/03/21 10:54:45;;;;;;;15.97;12.10;;;;;;;14.10;39.01;99637.34;5056862;28;20212;-74
2022/03/21 10:57:31;;;;;;;16.23;11.90;;;;;;;14.27;38.63;99636.34;5056418;28;20242;-75
2022/03/21 11:00:17;;;;;;;16.20;12.30;;;;;;;14.53;38.15;99640.94;5056238;28;20304;-74
2022/03/21 11:02:51;;;;;;;14.83;11.87;;;;;;;14.61;37.54;99631.53;5060214;28;20237;-74
2022/03/21 11:05:19;;;;;;;15.33;11.77;;;;;;;14.81;37.43;99635.63;5057898;28;20678;-76
2022/03/21 11:07:46;;;;;;;15.13;11.53;;;;;;;14.95;36.62;99630.28;5059735;28;20598;-74
2022/03/21 11:10:14;;;;;;;14.63;11.73;;;;;;;15.01;36.80;99621.91;5061397;28;20210;-76
2022/03/21 11:12:42;;;;;;;17.83;12.50;;;;;;;15.05;36.74;99620.75;5063260;28;20212;-75
2022/03/21 11:15:09;;;;;;;18.53;11.70;;;;;;;15.11;37.79;99621.25;5061599;28;20223;-75
2022/03/21 11:17:36;;;;;;;14.40;12.33;;;;;;;15.07;37.00;99618.84;5063406;28;20259;-74
2022/03/21 11:20:05;;;;;;;17.37;12.60;;;;;;;15.07;37.44;99617.06;5069545;28;20678;-76
2022/03/21 11:22:33;;;;;;;17.40;12.27;;;;;;;15.08;36.79;99623.22;5069363;28;20264;-74
2022/03/21 11:25:02;;;;;;;18.63;12.50;;;;;;;14.98;37.47;99624.78;5065545;28;20217;-74
2022/03/21 11:27:47;;;;;;;15.73;12.23;;;;;;;14.98;37.42;99619.44;5067765;28;20225;-76
2022/03/21 11:30:21;;;;;;;18.20;12.47;;;;;;;15.09;36.78;99623.13;5064212;28;20221;-75
2022/03/21 11:32:57;;;;;;;15.03;11.57;;;;;;;15.09;37.73;99616.97;5057068;28;20666;-74
2022/03/21 11:35:27;;;;;;;17.50;12.73;;;;;;;15.07;37.31;99618.84;5063137;28;20300;-74
2022/03/21 11:37:55;;;;;;;18.10;13.17;;;;;;;15.11;36.49;99617.72;5068407;28;20224;-74
2022/03/21 11:40:29;;;;;;;16.23;13.43;;;;;;;15.07;36.93;99613.53;5067858;28;20232;-74
2022/03/21 11:43:30;;;;;;;15.57;12.43;;;;;;;15.06;36.67;99607.34;5066945;28;20230;-74
2022/03/21 11:45:57;;;;;;;14.47;11.90;;;;;;;15.04;36.42;99608.41;5062606;28;20206;-74
2022/03/21 11:48:36;;;;;;;16.33;12.90;;;;;;;15.07;36.55;99608.19;5065545;28;20209;-73
2022/03/21 11:51:26;;;;;;;16.07;12.83;;;;;;;15.30;36.95;99600.44;5057222;28;20741;-74
2022/03/21 11:53:55;;;;;;;17.17;12.53;;;;;;;15.32;36.12;99597.66;5062338;28;20214;-75
2022/03/21 11:56:52;;;;;;;14.90;11.67;;;;;;;15.24;36.02;99594.66;5063844;28;20234;-74